sensor_id;sensor_type;location;lat;lon;timestamp;pressure;altitude;pressure_sealevel;temperature;humidity
50852;BME280;43953;45.508;-122.806;2022-07-29T00:00:16;100266.16;;;42.33;23.44
50852;BME280;43953;45.508;-122.806;2022-07-29T00:00:47;100273.19;;;42.05;23.78
50852;BME280;43953;45.508;-122.806;2022-07-29T00:01:19;100264.03;;;41.77;24.25
50852;BME280;43953;45.508;-122.806;2022-07-29T00:01:51;100262.84;;;41.55;25.04
50852;BME280;43953;45.508;-122.806;2022-07-29T00:02:23;100262.41;;;41.33;24.96
50852;BME280;43953;45.508;-122.806;2022-07-29T00:02:55;100266.75;;;41.14;25.23
50852;BME280;43953;45.508;-122.806;2022-07-29T00:03:27;100273.06;;;40.98;25.54
50852;BME280;43953;45.508;-122.806;2022-07-29T00:03:58;100263.22;;;40.83;26.05
50852;BME280;43953;45.508;-122.806;2022-07-29T00:04:30;100260.63;;;40.68;25.81
50852;BME280;43953;45.508;-122.806;2022-07-29T00:05:03;100264.00;;;40.56;26.16
50852;BME280;43953;45.508;-122.806;2022-07-29T00:05:34;100267.78;;;40.46;26.18
50852;BME280;43953;45.508;-122.806;2022-07-29T00:06:06;100259.47;;;40.35;26.12
50852;BME280;43953;45.508;-122.806;2022-07-29T00:06:38;100262.44;;;40.24;26.27
50852;BME280;43953;45.508;-122.806;2022-07-29T00:07:10;100255.25;;;40.16;26.44
50852;BME280;43953;45.508;-122.806;2022-07-29T00:07:41;100250.94;;;40.08;26.43
50852;BME280;43953;45.508;-122.806;2022-07-29T00:08:13;100258.25;;;40.02;26.29
50852;BME280;43953;45.508;-122.806;2022-07-29T00:08:46;100235.53;;;39.86;27.17
50852;BME280;43953;45.508;-122.806;2022-07-29T00:09:18;100251.59;;;39.89;27.22
50852;BME280;43953;45.508;-122.806;2022-07-29T00:09:50;100245.22;;;39.81;26.73
50852;BME280;43953;45.508;-122.806;2022-07-29T00:10:21;100249.31;;;39.76;27.39
50852;BME280;43953;45.508;-122.806;2022-07-29T00:10:53;100251.34;;;39.72;27.35
50852;BME280;43953;45.508;-122.806;2022-07-29T00:11:25;100240.53;;;39.67;27.55
50852;BME280;43953;45.508;-122.806;2022-07-29T00:11:59;100247.41;;;39.63;27.08
50852;BME280;43953;45.508;-122.806;2022-07-29T00:12:31;100246.28;;;39.56;27.08
50852;BME280;43953;45.508;-122.806;2022-07-29T00:13:03;100250.75;;;39.54;27.88
50852;BME280;43953;45.508;-122.806;2022-07-29T00:13:35;100246.38;;;39.49;27.81
50852;BME280;43953;45.508;-122.806;2022-07-29T00:14:06;100243.56;;;39.46;27.22
50852;BME280;43953;45.508;-122.806;2022-07-29T00:14:38;100248.06;;;39.40;27.95
50852;BME280;43953;45.508;-122.806;2022-07-29T00:15:10;100255.31;;;39.37;27.86
50852;BME280;43953;45.508;-122.806;2022-07-29T00:15:41;100258.19;;;39.33;27.83
50852;BME280;43953;45.508;-122.806;2022-07-29T00:16:13;100253.38;;;39.30;27.90
50852;BME280;43953;45.508;-122.806;2022-07-29T00:16:45;100253.78;;;39.29;27.51
50852;BME280;43953;45.508;-122.806;2022-07-29T00:17:17;100249.38;;;39.24;28.14
50852;BME280;43953;45.508;-122.806;2022-07-29T00:17:48;100259.06;;;39.23;27.76
50852;BME280;43953;45.508;-122.806;2022-07-29T00:18:20;100251.44;;;39.20;28.35
50852;BME280;43953;45.508;-122.806;2022-07-29T00:18:52;100247.44;;;39.18;27.86
50852;BME280;43953;45.508;-122.806;2022-07-29T00:19:23;100251.91;;;39.15;27.93
50852;BME280;43953;45.508;-122.806;2022-07-29T00:19:55;100255.94;;;39.14;27.98
50852;BME280;43953;45.508;-122.806;2022-07-29T00:20:27;100252.72;;;39.12;27.89
50852;BME280;43953;45.508;-122.806;2022-07-29T00:20:59;100253.13;;;39.10;28.53
50852;BME280;43953;45.508;-122.806;2022-07-29T00:21:31;100249.13;;;39.11;28.23
50852;BME280;43953;45.508;-122.806;2022-07-29T00:22:03;100246.66;;;39.17;27.78
50852;BME280;43953;45.508;-122.806;2022-07-29T00:22:37;100256.63;;;39.25;27.67
50852;BME280;43953;45.508;-122.806;2022-07-29T00:23:09;100255.31;;;39.37;28.24
50852;BME280;43953;45.508;-122.806;2022-07-29T00:23:41;100249.59;;;39.48;27.93
50852;BME280;43953;45.508;-122.806;2022-07-29T00:24:13;100256.75;;;39.56;27.17
50852;BME280;43953;45.508;-122.806;2022-07-29T00:24:44;100243.44;;;39.60;27.27
50852;BME280;43953;45.508;-122.806;2022-07-29T00:25:18;100237.03;;;39.56;27.67
50852;BME280;43953;45.508;-122.806;2022-07-29T00:25:50;100247.16;;;39.50;27.60
50852;BME280;43953;45.508;-122.806;2022-07-29T00:26:21;100245.63;;;39.42;27.62
50852;BME280;43953;45.508;-122.806;2022-07-29T00:26:53;100244.09;;;39.33;27.47
50852;BME280;43953;45.508;-122.806;2022-07-29T00:27:25;100240.94;;;39.24;27.89
50852;BME280;43953;45.508;-122.806;2022-07-29T00:27:56;100242.63;;;39.18;28.15
50852;BME280;43953;45.508;-122.806;2022-07-29T00:28:28;100243.88;;;39.13;28.06
50852;BME280;43953;45.508;-122.806;2022-07-29T00:29:01;100251.50;;;39.13;28.03
50852;BME280;43953;45.508;-122.806;2022-07-29T00:29:33;100241.06;;;39.10;27.66
50852;BME280;43953;45.508;-122.806;2022-07-29T00:30:05;100242.72;;;39.04;28.12
50852;BME280;43953;45.508;-122.806;2022-07-29T00:30:37;100249.19;;;39.01;28.05
50852;BME280;43953;45.508;-122.806;2022-07-29T00:31:09;100254.88;;;38.97;28.17
50852;BME280;43953;45.508;-122.806;2022-07-29T00:31:41;100245.25;;;38.91;28.02
50852;BME280;43953;45.508;-122.806;2022-07-29T00:32:13;100239.69;;;38.80;28.14
50852;BME280;43953;45.508;-122.806;2022-07-29T00:32:45;100245.72;;;38.79;28.40
50852;BME280;43953;45.508;-122.806;2022-07-29T00:33:16;100244.97;;;38.71;28.58
50852;BME280;43953;45.508;-122.806;2022-07-29T00:33:48;100248.22;;;38.66;28.68
50852;BME280;43953;45.508;-122.806;2022-07-29T00:34:20;100243.44;;;38.59;28.81
50852;BME280;43953;45.508;-122.806;2022-07-29T00:35:10;100247.94;;;38.50;28.84
50852;BME280;43953;45.508;-122.806;2022-07-29T00:35:59;100243.56;;;38.41;29.15
50852;BME280;43953;45.508;-122.806;2022-07-29T00:36:31;100241.97;;;38.40;29.05
50852;BME280;43953;45.508;-122.806;2022-07-29T00:37:03;100245.56;;;38.37;29.27
50852;BME280;43953;45.508;-122.806;2022-07-29T00:37:34;100239.16;;;38.33;28.96
50852;BME280;43953;45.508;-122.806;2022-07-29T00:38:06;100244.00;;;38.29;29.35
50852;BME280;43953;45.508;-122.806;2022-07-29T00:38:38;100244.03;;;38.26;29.53
50852;BME280;43953;45.508;-122.806;2022-07-29T00:39:10;100235.63;;;38.22;29.19
50852;BME280;43953;45.508;-122.806;2022-07-29T00:39:41;100234.81;;;38.18;29.25
50852;BME280;43953;45.508;-122.806;2022-07-29T00:40:13;100244.88;;;38.15;29.26
50852;BME280;43953;45.508;-122.806;2022-07-29T00:40:46;100242.09;;;38.12;29.34
50852;BME280;43953;45.508;-122.806;2022-07-29T00:41:18;100246.50;;;38.09;29.51
50852;BME280;43953;45.508;-122.806;2022-07-29T00:41:50;100240.09;;;38.05;29.61
50852;BME280;43953;45.508;-122.806;2022-07-29T00:42:22;100238.91;;;38.03;29.32
50852;BME280;43953;45.508;-122.806;2022-07-29T00:42:53;100237.72;;;38.00;29.72
50852;BME280;43953;45.508;-122.806;2022-07-29T00:43:25;100242.13;;;37.97;29.67
50852;BME280;43953;45.508;-122.806;2022-07-29T00:43:58;100239.34;;;37.94;29.68
50852;BME280;43953;45.508;-122.806;2022-07-29T00:44:29;100244.97;;;37.90;29.68
50852;BME280;43953;45.508;-122.806;2022-07-29T00:45:01;100234.53;;;37.87;30.01
50852;BME280;43953;45.508;-122.806;2022-07-29T00:45:33;100233.75;;;37.79;29.80
50852;BME280;43953;45.508;-122.806;2022-07-29T00:46:05;100239.34;;;37.83;29.92
50852;BME280;43953;45.508;-122.806;2022-07-29T00:46:37;100238.97;;;37.81;29.93
50852;BME280;43953;45.508;-122.806;2022-07-29T00:47:10;100239.78;;;37.78;30.00
50852;BME280;43953;45.508;-122.806;2022-07-29T00:47:42;100239.38;;;37.76;30.22
50852;BME280;43953;45.508;-122.806;2022-07-29T00:48:13;100238.59;;;37.72;30.25
50852;BME280;43953;45.508;-122.806;2022-07-29T00:48:45;100235.41;;;37.70;30.07
50852;BME280;43953;45.508;-122.806;2022-07-29T00:49:17;100246.22;;;37.68;30.04
50852;BME280;43953;45.508;-122.806;2022-07-29T00:49:49;100236.59;;;37.65;30.25
50852;BME280;43953;45.508;-122.806;2022-07-29T00:50:20;100242.63;;;37.64;30.28
50852;BME280;43953;45.508;-122.806;2022-07-29T00:50:52;100237.44;;;37.59;30.18
50852;BME280;43953;45.508;-122.806;2022-07-29T00:51:26;100242.63;;;37.56;30.55
50852;BME280;43953;45.508;-122.806;2022-07-29T00:52:01;100236.22;;;37.52;30.35
50852;BME280;43953;45.508;-122.806;2022-07-29T00:52:34;100236.22;;;37.52;30.43
50852;BME280;43953;45.508;-122.806;2022-07-29T00:53:07;100235.84;;;37.50;30.49
50852;BME280;43953;45.508;-122.806;2022-07-29T00:53:39;100237.47;;;37.48;30.50
50852;BME280;43953;45.508;-122.806;2022-07-29T00:54:12;100243.03;;;37.44;30.56
50852;BME280;43953;45.508;-122.806;2022-07-29T00:54:44;100233.03;;;37.43;30.69
50852;BME280;43953;45.508;-122.806;2022-07-29T00:55:16;100225.81;;;37.35;30.74
50852;BME280;43953;45.508;-122.806;2022-07-29T00:55:48;100235.44;;;37.38;30.87
50852;BME280;43953;45.508;-122.806;2022-07-29T00:56:20;100226.63;;;37.32;30.82
50852;BME280;43953;45.508;-122.806;2022-07-29T00:56:51;100239.44;;;37.33;30.88
50852;BME280;43953;45.508;-122.806;2022-07-29T00:57:23;100237.84;;;37.32;30.91
50852;BME280;43953;45.508;-122.806;2022-07-29T00:57:55;100233.84;;;37.29;30.88
50852;BME280;43953;45.508;-122.806;2022-07-29T00:58:28;100246.66;;;37.27;31.18
50852;BME280;43953;45.508;-122.806;2022-07-29T00:59:00;100241.84;;;37.24;31.15
50852;BME280;43953;45.508;-122.806;2022-07-29T00:59:31;100228.63;;;37.21;30.93
50852;BME280;43953;45.508;-122.806;2022-07-29T01:00:05;100232.66;;;37.20;31.21
50852;BME280;43953;45.508;-122.806;2022-07-29T01:00:37;100230.22;;;37.18;30.98
50852;BME280;43953;45.508;-122.806;2022-07-29T01:01:11;100233.84;;;37.15;31.06
50852;BME280;43953;45.508;-122.806;2022-07-29T01:01:43;100232.66;;;37.13;31.38
50852;BME280;43953;45.508;-122.806;2022-07-29T01:02:15;100227.44;;;37.11;31.05
50852;BME280;43953;45.508;-122.806;2022-07-29T01:02:47;100233.47;;;37.09;31.27
50852;BME280;43953;45.508;-122.806;2022-07-29T01:03:21;100231.47;;;37.06;31.56
50852;BME280;43953;45.508;-122.806;2022-07-29T01:03:53;100232.25;;;37.03;31.45
50852;BME280;43953;45.508;-122.806;2022-07-29T01:04:25;100234.66;;;37.01;31.36
50852;BME280;43953;45.508;-122.806;2022-07-29T01:04:57;100230.25;;;37.00;31.23
50852;BME280;43953;45.508;-122.806;2022-07-29T01:05:30;100231.00;;;36.97;31.53
50852;BME280;43953;45.508;-122.806;2022-07-29T01:06:02;100231.44;;;36.96;31.29
50852;BME280;43953;45.508;-122.806;2022-07-29T01:06:34;100227.41;;;36.93;31.43
50852;BME280;43953;45.508;-122.806;2022-07-29T01:07:07;100231.44;;;36.92;31.63
50852;BME280;43953;45.508;-122.806;2022-07-29T01:07:39;100228.59;;;36.88;31.99
50852;BME280;43953;45.508;-122.806;2022-07-29T01:08:12;100227.00;;;36.87;31.71
50852;BME280;43953;45.508;-122.806;2022-07-29T01:08:46;100232.22;;;36.85;31.76
50852;BME280;43953;45.508;-122.806;2022-07-29T01:09:19;100224.59;;;36.82;31.95
50852;BME280;43953;45.508;-122.806;2022-07-29T01:09:51;100224.22;;;36.80;31.81
50852;BME280;43953;45.508;-122.806;2022-07-29T01:10:24;100230.22;;;36.79;31.85
50852;BME280;43953;45.508;-122.806;2022-07-29T01:10:57;100227.00;;;36.77;31.87
50852;BME280;43953;45.508;-122.806;2022-07-29T01:11:30;100230.22;;;36.75;32.07
50852;BME280;43953;45.508;-122.806;2022-07-29T01:12:02;100230.59;;;36.74;32.06
50852;BME280;43953;45.508;-122.806;2022-07-29T01:12:37;100233.03;;;36.72;31.95
50852;BME280;43953;45.508;-122.806;2022-07-29T01:13:09;100228.59;;;36.71;31.99
50852;BME280;43953;45.508;-122.806;2022-07-29T01:13:43;100228.22;;;36.69;31.83
50852;BME280;43953;45.508;-122.806;2022-07-29T01:14:15;100229.81;;;36.66;32.09
50852;BME280;43953;45.508;-122.806;2022-07-29T01:14:48;100225.78;;;36.63;32.17
50852;BME280;43953;45.508;-122.806;2022-07-29T01:15:21;100224.19;;;36.62;32.12
50852;BME280;43953;45.508;-122.806;2022-07-29T01:15:59;100227.38;;;36.61;32.24
50852;BME280;43953;45.508;-122.806;2022-07-29T01:16:54;100227.38;;;36.57;32.33
50852;BME280;43953;45.508;-122.806;2022-07-29T01:18:33;100224.53;;;36.50;32.44
50852;BME280;43953;45.508;-122.806;2022-07-29T01:20:10;100222.50;;;36.47;32.60
50852;BME280;43953;45.508;-122.806;2022-07-29T01:22:27;100225.31;;;36.40;32.75
50852;BME280;43953;45.508;-122.806;2022-07-29T01:29:47;100211.25;;;36.18;33.05
50852;BME280;43953;45.508;-122.806;2022-07-29T01:30:22;100217.25;;;36.17;33.13
50852;BME280;43953;45.508;-122.806;2022-07-29T01:30:56;100212.84;;;36.16;33.03
50852;BME280;43953;45.508;-122.806;2022-07-29T01:32:11;100218.44;;;36.12;33.19
50852;BME280;43953;45.508;-122.806;2022-07-29T01:32:47;100215.22;;;36.10;33.12
50852;BME280;43953;45.508;-122.806;2022-07-29T01:33:22;100214.81;;;36.08;33.06
50852;BME280;43953;45.508;-122.806;2022-07-29T01:34:21;100216.81;;;36.04;33.06
50852;BME280;43953;45.508;-122.806;2022-07-29T01:35:05;100212.38;;;36.03;33.37
50852;BME280;43953;45.508;-122.806;2022-07-29T01:35:41;100218.38;;;36.02;33.49
50852;BME280;43953;45.508;-122.806;2022-07-29T01:36:39;100221.56;;;36.00;33.50
50852;BME280;43953;45.508;-122.806;2022-07-29T01:37:26;100220.75;;;35.96;33.44
50852;BME280;43953;45.508;-122.806;2022-07-29T01:38:39;100222.72;;;35.92;33.91
50852;BME280;43953;45.508;-122.806;2022-07-29T01:39:35;100218.31;;;35.91;33.71
50852;BME280;43953;45.508;-122.806;2022-07-29T01:40:34;100211.91;;;35.87;33.57
50852;BME280;43953;45.508;-122.806;2022-07-29T01:41:08;100212.69;;;35.84;33.65
50852;BME280;43953;45.508;-122.806;2022-07-29T01:41:50;100211.09;;;35.83;33.83
50852;BME280;43953;45.508;-122.806;2022-07-29T01:42:38;100216.69;;;35.83;33.93
50852;BME280;43953;45.508;-122.806;2022-07-29T01:43:21;100215.06;;;35.82;33.89
50852;BME280;43953;45.508;-122.806;2022-07-29T01:43:59;100213.47;;;35.81;33.53
50852;BME280;43953;45.508;-122.806;2022-07-29T01:44:54;100216.66;;;35.79;33.84
50852;BME280;43953;45.508;-122.806;2022-07-29T01:45:39;100213.47;;;35.77;33.84
50852;BME280;43953;45.508;-122.806;2022-07-29T01:46:20;100211.03;;;35.75;33.86
50852;BME280;43953;45.508;-122.806;2022-07-29T01:46:57;100218.66;;;35.75;33.92
50852;BME280;43953;45.508;-122.806;2022-07-29T01:47:35;100207.84;;;35.73;33.86
50852;BME280;43953;45.508;-122.806;2022-07-29T01:49:20;100209.00;;;35.69;34.02
50852;BME280;43953;45.508;-122.806;2022-07-29T01:49:54;100212.63;;;35.69;33.89
50852;BME280;43953;45.508;-122.806;2022-07-29T01:50:46;100206.59;;;35.67;34.01
50852;BME280;43953;45.508;-122.806;2022-07-29T01:51:21;100206.19;;;35.65;33.92
50852;BME280;43953;45.508;-122.806;2022-07-29T01:52:07;100211.38;;;35.63;34.28
50852;BME280;43953;45.508;-122.806;2022-07-29T01:52:54;100206.56;;;35.60;34.16
50852;BME280;43953;45.508;-122.806;2022-07-29T01:53:35;100210.16;;;35.61;34.35
50852;BME280;43953;45.508;-122.806;2022-07-29T01:54:13;100214.16;;;35.60;34.11
50852;BME280;43953;45.508;-122.806;2022-07-29T01:54:50;100207.78;;;35.59;34.34
50852;BME280;43953;45.508;-122.806;2022-07-29T01:55:28;100208.16;;;35.58;34.53
50852;BME280;43953;45.508;-122.806;2022-07-29T01:56:00;100210.94;;;35.58;34.15
50852;BME280;43953;45.508;-122.806;2022-07-29T01:56:33;100200.97;;;35.57;34.29
50852;BME280;43953;45.508;-122.806;2022-07-29T01:57:08;100211.34;;;35.56;34.44
50852;BME280;43953;45.508;-122.806;2022-07-29T01:57:44;100211.72;;;35.54;34.36
50852;BME280;43953;45.508;-122.806;2022-07-29T01:58:17;100207.31;;;35.53;34.26
50852;BME280;43953;45.508;-122.806;2022-07-29T01:58:51;100209.31;;;35.53;34.64
50852;BME280;43953;45.508;-122.806;2022-07-29T01:59:25;100207.69;;;35.52;34.26
50852;BME280;43953;45.508;-122.806;2022-07-29T01:59:58;100210.09;;;35.50;34.14
50852;BME280;43953;45.508;-122.806;2022-07-29T02:00:32;100215.69;;;35.50;34.38
50852;BME280;43953;45.508;-122.806;2022-07-29T02:01:05;100208.47;;;35.49;34.28
50852;BME280;43953;45.508;-122.806;2022-07-29T02:01:40;100208.88;;;35.47;34.42
50852;BME280;43953;45.508;-122.806;2022-07-29T02:02:15;100210.88;;;35.47;34.08
50852;BME280;43953;45.508;-122.806;2022-07-29T02:02:48;100204.44;;;35.46;34.34
50852;BME280;43953;45.508;-122.806;2022-07-29T02:03:22;100207.66;;;35.45;34.45
50852;BME280;43953;45.508;-122.806;2022-07-29T02:03:55;100207.66;;;35.45;34.21
50852;BME280;43953;45.508;-122.806;2022-07-29T02:04:28;100213.25;;;35.45;34.24
50852;BME280;43953;45.508;-122.806;2022-07-29T02:05:02;100208.84;;;35.44;34.36
50852;BME280;43953;45.508;-122.806;2022-07-29T02:05:38;100210.03;;;35.43;34.59
50852;BME280;43953;45.508;-122.806;2022-07-29T02:06:11;100216.84;;;35.42;34.24
50852;BME280;43953;45.508;-122.806;2022-07-29T02:06:45;100212.41;;;35.41;34.35
50852;BME280;43953;45.508;-122.806;2022-07-29T02:07:21;100203.63;;;35.39;34.29
50852;BME280;43953;45.508;-122.806;2022-07-29T02:07:56;100211.22;;;35.38;34.25
50852;BME280;43953;45.508;-122.806;2022-07-29T02:08:30;100206.41;;;35.39;34.58
50852;BME280;43953;45.508;-122.806;2022-07-29T02:09:04;100203.19;;;35.37;34.15
50852;BME280;43953;45.508;-122.806;2022-07-29T02:09:37;100202.78;;;35.35;34.34
50852;BME280;43953;45.508;-122.806;2022-07-29T02:10:12;100208.78;;;35.37;34.00
50852;BME280;43953;45.508;-122.806;2022-07-29T02:10:45;100203.59;;;35.35;33.99
50852;BME280;43953;45.508;-122.806;2022-07-29T02:11:17;100209.19;;;35.35;34.24
50852;BME280;43953;45.508;-122.806;2022-07-29T02:11:52;100219.56;;;35.35;33.62
50852;BME280;43953;45.508;-122.806;2022-07-29T02:12:25;100209.56;;;35.33;34.00
50852;BME280;43953;45.508;-122.806;2022-07-29T02:12:59;100209.16;;;35.31;33.89
50852;BME280;43953;45.508;-122.806;2022-07-29T02:13:31;100206.34;;;35.31;34.21
50852;BME280;43953;45.508;-122.806;2022-07-29T02:14:07;100208.34;;;35.31;33.97
50852;BME280;43953;45.508;-122.806;2022-07-29T02:14:44;100213.16;;;35.30;34.27
50852;BME280;43953;45.508;-122.806;2022-07-29T02:15:18;100208.34;;;35.27;34.47
50852;BME280;43953;45.508;-122.806;2022-07-29T02:15:51;100209.94;;;35.28;33.87
50852;BME280;43953;45.508;-122.806;2022-07-29T02:16:27;100215.13;;;35.26;33.91
50852;BME280;43953;45.508;-122.806;2022-07-29T02:17:00;100199.53;;;35.25;34.03
50852;BME280;43953;45.508;-122.806;2022-07-29T02:17:39;100210.72;;;35.25;34.45
50852;BME280;43953;45.508;-122.806;2022-07-29T02:18:18;100210.31;;;35.23;33.85
50852;BME280;43953;45.508;-122.806;2022-07-29T02:18:53;100210.69;;;35.22;33.94
50852;BME280;43953;45.508;-122.806;2022-07-29T02:19:27;100198.31;;;35.23;34.19
50852;BME280;43953;45.508;-122.806;2022-07-29T02:20:03;100205.09;;;35.22;34.04
50852;BME280;43953;45.508;-122.806;2022-07-29T02:20:36;100206.31;;;35.21;34.31
50852;BME280;43953;45.508;-122.806;2022-07-29T02:21:09;100205.50;;;35.20;34.17
50852;BME280;43953;45.508;-122.806;2022-07-29T02:21:43;100207.09;;;35.21;34.08
50852;BME280;43953;45.508;-122.806;2022-07-29T02:22:16;100204.31;;;35.21;34.12
50852;BME280;43953;45.508;-122.806;2022-07-29T02:22:51;100202.72;;;35.20;34.17
50852;BME280;43953;45.508;-122.806;2022-07-29T02:23:24;100203.88;;;35.19;34.08
50852;BME280;43953;45.508;-122.806;2022-07-29T02:23:58;100210.69;;;35.18;34.04
50852;BME280;43953;45.508;-122.806;2022-07-29T02:24:30;100212.28;;;35.19;34.11
50852;BME280;43953;45.508;-122.806;2022-07-29T02:25:04;100206.28;;;35.17;34.54
50852;BME280;43953;45.508;-122.806;2022-07-29T02:25:37;100208.25;;;35.17;34.52
50852;BME280;43953;45.508;-122.806;2022-07-29T02:26:10;100207.44;;;35.16;34.00
50852;BME280;43953;45.508;-122.806;2022-07-29T02:26:43;100204.25;;;35.14;34.14
50852;BME280;43953;45.508;-122.806;2022-07-29T02:27:17;100211.44;;;35.15;34.15
50852;BME280;43953;45.508;-122.806;2022-07-29T02:27:51;100207.06;;;35.14;34.09
50852;BME280;43953;45.508;-122.806;2022-07-29T02:28:26;100216.63;;;35.13;33.93
50852;BME280;43953;45.508;-122.806;2022-07-29T02:28:59;100209.44;;;35.12;34.22
50852;BME280;43953;45.508;-122.806;2022-07-29T02:29:32;100207.81;;;35.11;34.09
50852;BME280;43953;45.508;-122.806;2022-07-29T02:30:05;100211.44;;;35.12;34.14
50852;BME280;43953;45.508;-122.806;2022-07-29T02:30:40;100209.81;;;35.10;34.23
50852;BME280;43953;45.508;-122.806;2022-07-29T02:31:13;100210.59;;;35.11;34.36
50852;BME280;43953;45.508;-122.806;2022-07-29T02:31:47;100214.59;;;35.10;34.43
50852;BME280;43953;45.508;-122.806;2022-07-29T02:32:21;100208.59;;;35.08;34.61
50852;BME280;43953;45.508;-122.806;2022-07-29T02:32:54;100209.41;;;35.08;34.20
50852;BME280;43953;45.508;-122.806;2022-07-29T02:33:27;100204.63;;;35.09;34.51
50852;BME280;43953;45.508;-122.806;2022-07-29T02:34:03;100204.19;;;35.07;34.44
50852;BME280;43953;45.508;-122.806;2022-07-29T02:34:38;100197.81;;;35.06;34.27
50852;BME280;43953;45.508;-122.806;2022-07-29T02:35:13;100197.81;;;35.06;34.25
50852;BME280;43953;45.508;-122.806;2022-07-29T02:35:46;100195.00;;;35.06;34.08
50852;BME280;43953;45.508;-122.806;2022-07-29T02:36:21;100197.00;;;35.06;34.52
50852;BME280;43953;45.508;-122.806;2022-07-29T02:36:55;100197.00;;;35.06;34.54
50852;BME280;43953;45.508;-122.806;2022-07-29T02:37:28;100191.41;;;35.06;34.14
50852;BME280;43953;45.508;-122.806;2022-07-29T02:38:02;100193.00;;;35.07;34.21
50852;BME280;43953;45.508;-122.806;2022-07-29T02:38:52;100202.59;;;35.06;34.50
50852;BME280;43953;45.508;-122.806;2022-07-29T02:39:29;100199.81;;;35.06;34.25
50852;BME280;43953;45.508;-122.806;2022-07-29T02:40:02;100203.41;;;35.06;34.44
50852;BME280;43953;45.508;-122.806;2022-07-29T02:40:37;100202.97;;;35.04;34.08
50852;BME280;43953;45.508;-122.806;2022-07-29T02:41:12;100205.34;;;35.02;34.21
50852;BME280;43953;45.508;-122.806;2022-07-29T02:41:50;100200.91;;;35.01;34.29
50852;BME280;43953;45.508;-122.806;2022-07-29T02:42:24;100197.69;;;34.96;34.59
50852;BME280;43953;45.508;-122.806;2022-07-29T02:42:58;100210.88;;;34.99;34.17
50852;BME280;43953;45.508;-122.806;2022-07-29T02:43:31;100202.09;;;34.97;34.23
50852;BME280;43953;45.508;-122.806;2022-07-29T02:44:13;100210.88;;;34.95;34.33
50852;BME280;43953;45.508;-122.806;2022-07-29T02:44:45;100204.47;;;34.95;34.57
50852;BME280;43953;45.508;-122.806;2022-07-29T02:45:17;100201.66;;;34.95;34.19
50852;BME280;43953;45.508;-122.806;2022-07-29T02:45:51;100203.25;;;34.92;34.10
50852;BME280;43953;45.508;-122.806;2022-07-29T02:47:02;100208.00;;;34.88;34.70
50852;BME280;43953;45.508;-122.806;2022-07-29T02:47:47;100195.59;;;34.85;34.91
50852;BME280;43953;45.508;-122.806;2022-07-29T02:48:27;100199.19;;;34.86;34.92
50852;BME280;43953;45.508;-122.806;2022-07-29T02:50:12;100205.94;;;34.81;34.73
50852;BME280;43953;45.508;-122.806;2022-07-29T02:50:53;100212.72;;;34.80;34.74
50852;BME280;43953;45.508;-122.806;2022-07-29T02:51:37;100203.91;;;34.78;34.51
50852;BME280;43953;45.508;-122.806;2022-07-29T02:52:27;100203.53;;;34.76;34.94
50852;BME280;43953;45.508;-122.806;2022-07-29T02:53:12;100205.88;;;34.74;34.78
50852;BME280;43953;45.508;-122.806;2022-07-29T02:53:49;100205.47;;;34.72;35.07
50852;BME280;43953;45.508;-122.806;2022-07-29T02:54:42;100213.81;;;34.69;34.80
50852;BME280;43953;45.508;-122.806;2022-07-29T02:55:25;100207.81;;;34.67;35.15
50852;BME280;43953;45.508;-122.806;2022-07-29T02:56:04;100211.78;;;34.65;34.72
50852;BME280;43953;45.508;-122.806;2022-07-29T02:56:39;100206.59;;;34.64;34.96
50852;BME280;43953;45.508;-122.806;2022-07-29T02:57:20;100214.13;;;34.60;34.84
50852;BME280;43953;45.508;-122.806;2022-07-29T02:58:25;100216.50;;;34.58;34.85
50852;BME280;43953;45.508;-122.806;2022-07-29T02:59:03;100210.50;;;34.56;35.36
50852;BME280;43953;45.508;-122.806;2022-07-29T02:59:36;100211.69;;;34.55;34.90
50852;BME280;43953;45.508;-122.806;2022-07-29T03:00:10;100203.66;;;34.53;35.23
50852;BME280;43953;45.508;-122.806;2022-07-29T03:00:44;100204.03;;;34.52;34.99
50852;BME280;43953;45.508;-122.806;2022-07-29T03:01:23;100209.22;;;34.50;35.43
50852;BME280;43953;45.508;-122.806;2022-07-29T03:01:57;100202.00;;;34.49;35.44
50852;BME280;43953;45.508;-122.806;2022-07-29T03:02:39;100208.00;;;34.47;35.51
50852;BME280;43953;45.508;-122.806;2022-07-29T03:03:14;100206.78;;;34.45;35.50
50852;BME280;43953;45.508;-122.806;2022-07-29T03:03:48;100213.56;;;34.43;35.54
50852;BME280;43953;45.508;-122.806;2022-07-29T03:04:21;100197.94;;;34.39;35.27
50852;BME280;43953;45.508;-122.806;2022-07-29T03:04:55;100198.72;;;34.39;35.40
50852;BME280;43953;45.508;-122.806;2022-07-29T03:05:30;100208.31;;;34.38;35.15
50852;BME280;43953;45.508;-122.806;2022-07-29T03:06:03;100203.47;;;34.35;35.49
50852;BME280;43953;45.508;-122.806;2022-07-29T03:06:37;100210.28;;;34.34;35.29
50852;BME280;43953;45.508;-122.806;2022-07-29T03:07:11;100204.25;;;34.32;35.27
50852;BME280;43953;45.508;-122.806;2022-07-29T03:07:58;100208.97;;;34.28;35.44
50852;BME280;43953;45.508;-122.806;2022-07-29T03:08:32;100204.59;;;34.27;35.28
50852;BME280;43953;45.508;-122.806;2022-07-29T03:09:10;100207.78;;;34.26;35.27
50852;BME280;43953;45.508;-122.806;2022-07-29T03:09:42;100205.34;;;34.24;35.53
50852;BME280;43953;45.508;-122.806;2022-07-29T03:10:16;100206.56;;;34.23;35.33